Felix-Klein-Gymnasium, Gttingen, 150m NN
Wetterdaten: aktuell Montag, 06.04.2020 14:00
Datum Zeit Temp. A. Feuchte A. Luftdruck Regen Wind Richtung Richtung Sonnenschein Taupunkt Windchill Windben
06.04.2020 14:00 21,2 C 32 % 1019,0 hPa 0,0 mm 4,7 km/h (1 Bft) S 188 15 min 3,8 C 21,2 C 17,7 km/h (3 Bft)
06.04.2020 13:45 20,4 C 33 % 1019,1 hPa 0,0 mm 4,8 km/h (1 Bft) S 178 15 min 3,6 C 20,4 C 16,1 km/h (3 Bft)
06.04.2020 13:30 19,7 C 35 % 1019,1 hPa 0,0 mm 5,5 km/h (1 Bft) O 100 15 min 3,8 C 19,7 C 19,3 km/h (3 Bft)
06.04.2020 13:15 19,3 C 35 % 1019,1 hPa 0,0 mm 6,2 km/h (2 Bft) SO 138 15 min 3,5 C 19,3 C 17,7 km/h (3 Bft)
06.04.2020 13:00 19,3 C 35 % 1019,2 hPa 0,0 mm 3,6 km/h (1 Bft) S-SW 198 15 min 3,5 C 19,3 C 14,5 km/h (3 Bft)
06.04.2020 12:45 18,6 C 35 % 1019,2 hPa 0,0 mm 4,6 km/h (1 Bft) S-SO 155 15 min 2,8 C 18,6 C 14,5 km/h (3 Bft)
06.04.2020 12:30 18,2 C 36 % 1019,3 hPa 0,0 mm 4,9 km/h (1 Bft) SO 132 15 min 2,9 C 18,2 C 14,5 km/h (3 Bft)
06.04.2020 12:15 17,9 C 35 % 1019,4 hPa 0,0 mm 4,1 km/h (1 Bft) SO 130 15 min 2,2 C 17,9 C 12,9 km/h (3 Bft)
06.04.2020 12:00 17,2 C 37 % 1019,5 hPa 0,0 mm 5,8 km/h (2 Bft) S-SO 147 15 min 2,4 C 17,2 C 16,1 km/h (3 Bft)
06.04.2020 11:45 16,8 C 36 % 1019,5 hPa 0,0 mm 6,4 km/h (2 Bft) S-SW 192 15 min 1,7 C 16,8 C 16,1 km/h (3 Bft)
06.04.2020 11:30 16,8 C 36 % 1019,6 hPa 0,0 mm 4,6 km/h (1 Bft) S 170 15 min 1,7 C 16,8 C 12,9 km/h (3 Bft)
06.04.2020 11:15 16,4 C 37 % 1019,7 hPa 0,0 mm 4,8 km/h (1 Bft) S-SW 202 15 min 1,7 C 16,4 C 16,1 km/h (3 Bft)
06.04.2020 11:00 15,8 C 38 % 1019,7 hPa 0,0 mm 5,2 km/h (1 Bft) S-SW 194 15 min 1,5 C 15,8 C 17,7 km/h (3 Bft)
06.04.2020 10:45 15,7 C 38 % 1019,7 hPa 0,0 mm 5,2 km/h (1 Bft) S-SO 148 15 min 1,4 C 15,7 C 14,5 km/h (3 Bft)
06.04.2020 10:30 15,1 C 40 % 1019,6 hPa 0,0 mm 5,0 km/h (1 Bft) S-SO 167 15 min 1,6 C 15,1 C 16,1 km/h (3 Bft)
06.04.2020 10:15 14,1 C 43 % 1019,6 hPa 0,0 mm 6,4 km/h (2 Bft) SO 139 15 min 1,7 C 14,1 C 14,5 km/h (3 Bft)
06.04.2020 10:00 13,8 C 44 % 1019,7 hPa 0,0 mm 3,4 km/h (1 Bft) S-SO 148 15 min 1,8 C 13,8 C 12,9 km/h (3 Bft)
06.04.2020 09:45 12,9 C 45 % 1019,6 hPa 0,0 mm 5,0 km/h (1 Bft) S-SO 165 15 min 1,3 C 12,9 C 12,9 km/h (3 Bft)
06.04.2020 09:30 12,1 C 47 % 1019,7 hPa 0,0 mm 2,7 km/h (1 Bft) SO 144 15 min 1,1 C 12,1 C 11,3 km/h (2 Bft)
06.04.2020 09:15 10,4 C 58 % 1019,7 hPa 0,0 mm 0,0 km/h (0 Bft) S-SW 197 15 min 2,5 C 10,4 C 0,0 km/h (0 Bft)
06.04.2020 09:00 9,1 C 61 % 1019,8 hPa 0,0 mm 0,0 km/h (0 Bft) S-SW 209 15 min 2,0 C 9,1 C 0,0 km/h (0 Bft)
06.04.2020 08:45 8,1 C 64 % 1019,8 hPa 0,0 mm 0,0 km/h (0 Bft) S-SW 209 15 min 1,7 C 8,1 C 0,0 km/h (0 Bft)
06.04.2020 08:30 6,9 C 65 % 1019,8 hPa 0,0 mm 0,0 km/h (0 Bft) W-NW 294 15 min 0,8 C 6,9 C 0,0 km/h (0 Bft)
06.04.2020 08:15 5,9 C 69 % 1019,6 hPa 0,0 mm 0,0 km/h (0 Bft) W-NW 296 15 min 0,7 C 5,9 C 0,0 km/h (0 Bft)
06.04.2020 08:00 4,6 C 73 % 1019,6 hPa 0,0 mm 0,0 km/h (0 Bft) W-NW 295 15 min 0,2 C 4,6 C 0,0 km/h (0 Bft)
06.04.2020 07:45 4,1 C 75 % 1019,5 hPa 0,0 mm 0,1 km/h (0 Bft) W-NW 284 0 min 0,1 C 4,1 C 3,2 km/h (1 Bft)
06.04.2020 07:30 3,4 C 76 % 1019,3 hPa 0,0 mm 0,0 km/h (0 Bft) S-SW 211 0 min -0,4 C 3,4 C 1,6 km/h (1 Bft)
06.04.2020 07:15 3,1 C 76 % 1019,2 hPa 0,0 mm 0,0 km/h (0 Bft) S-SW 209 0 min -0,7 C 3,1 C 0,0 km/h (0 Bft)
06.04.2020 07:00 2,9 C 76 % 1019,1 hPa 0,0 mm 0,0 km/h (0 Bft) S-SW 204 0 min -0,9 C 2,9 C 0,0 km/h (0 Bft)
06.04.2020 06:45 2,9 C 76 % 1019,1 hPa 0,0 mm 0,5 km/h (0 Bft) S-SW 203 0 min -0,9 C 2,9 C 4,8 km/h (1 Bft)
06.04.2020 06:30 3,1 C 75 % 1019,0 hPa 0,0 mm 1,0 km/h (0 Bft) S-SW 192 0 min -0,9 C 3,1 C 6,4 km/h (2 Bft)
06.04.2020 06:15 3,6 C 73 % 1019,0 hPa 0,0 mm 0,1 km/h (0 Bft) S-SO 165 0 min -0,8 C 3,6 C 3,2 km/h (1 Bft)
06.04.2020 06:00 3,7 C 73 % 1019,0 hPa 0,0 mm 0,0 km/h (0 Bft) S 176 0 min -0,7 C 3,7 C 0,0 km/h (0 Bft)
06.04.2020 05:45 3,9 C 72 % 1019,0 hPa 0,0 mm 0,0 km/h (0 Bft) S 175 0 min -0,7 C 3,9 C 0,0 km/h (0 Bft)
06.04.2020 05:30 4,3 C 71 % 1019,0 hPa 0,0 mm 0,0 km/h (0 Bft) S 175 0 min -0,5 C 4,3 C 0,0 km/h (0 Bft)
06.04.2020 05:15 4,7 C 68 % 1019,1 hPa 0,0 mm 0,0 km/h (0 Bft) S 175 0 min -0,7 C 4,7 C 0,0 km/h (0 Bft)
06.04.2020 05:00 5,2 C 67 % 1019,1 hPa 0,0 mm 0,0 km/h (0 Bft) S 175 0 min -0,4 C 5,2 C 0,0 km/h (0 Bft)
06.04.2020 04:45 5,4 C 66 % 1019,0 hPa 0,0 mm 0,0 km/h (0 Bft) S 175 0 min -0,4 C 5,4 C 0,0 km/h (0 Bft)
06.04.2020 04:30 6,1 C 64 % 1019,1 hPa 0,0 mm 0,0 km/h (0 Bft) S 175 0 min -0,2 C 6,1 C 1,6 km/h (1 Bft)
06.04.2020 04:15 6,7 C 62 % 1019,1 hPa 0,0 mm 0,1 km/h (0 Bft) S 179 0 min -0,1 C 6,7 C 3,2 km/h (1 Bft)
06.04.2020 04:00 7,2 C 61 % 1019,2 hPa 0,0 mm 2,8 km/h (1 Bft) SW 223 0 min 0,2 C 7,2 C 8,0 km/h (2 Bft)
06.04.2020 03:45 7,2 C 61 % 1019,2 hPa 0,0 mm 3,6 km/h (1 Bft) S-SW 202 0 min 0,2 C 7,2 C 8,0 km/h (2 Bft)
06.04.2020 03:30 7,6 C 60 % 1019,2 hPa 0,0 mm 1,0 km/h (0 Bft) S-SW 195 0 min 0,3 C 7,6 C 4,8 km/h (1 Bft)
06.04.2020 03:15 7,7 C 59 % 1019,2 hPa 0,0 mm 1,1 km/h (1 Bft) S-SW 199 0 min 0,2 C 7,7 C 6,4 km/h (2 Bft)
06.04.2020 03:00 7,9 C 59 % 1019,2 hPa 0,0 mm 2,1 km/h (1 Bft) S 187 0 min 0,4 C 7,9 C 8,0 km/h (2 Bft)
06.04.2020 02:45 8,2 C 58 % 1019,2 hPa 0,0 mm 0,6 km/h (0 Bft) S-SW 209 0 min 0,4 C 8,2 C 4,8 km/h (1 Bft)
06.04.2020 02:30 8,9 C 55 % 1019,1 hPa 0,0 mm 1,3 km/h (1 Bft) S-SW 202 0 min 0,4 C 8,9 C 6,4 km/h (2 Bft)
06.04.2020 02:15 9,3 C 54 % 1019,1 hPa 0,0 mm 1,0 km/h (0 Bft) S-SW 213 0 min 0,5 C 9,3 C 6,4 km/h (2 Bft)
06.04.2020 02:00 9,9 C 52 % 1019,2 hPa 0,0 mm 1,2 km/h (1 Bft) S-SW 206 0 min 0,5 C 9,9 C 12,9 km/h (3 Bft)
06.04.2020 01:45 9,8 C 52 % 1019,1 hPa 0,0 mm 4,8 km/h (1 Bft) S-SO 149 0 min 0,4 C 9,6 C 17,7 km/h (3 Bft)
06.04.2020 01:30 8,8 C 56 % 1019,2 hPa 0,0 mm 1,3 km/h (1 Bft) S-SO 155 0 min 0,5 C 8,8 C 11,3 km/h (2 Bft)
06.04.2020 01:15 9,1 C 54 % 1019,3 hPa 0,0 mm 0,9 km/h (0 Bft) S 188 0 min 0,3 C 9,1 C 8,0 km/h (2 Bft)
06.04.2020 01:00 9,6 C 53 % 1019,4 hPa 0,0 mm 0,7 km/h (0 Bft) S 183 0 min 0,5 C 9,6 C 11,3 km/h (2 Bft)
06.04.2020 00:45 10,0 C 51 % 1019,5 hPa 0,0 mm 1,2 km/h (1 Bft) S 175 0 min 0,3 C 10,0 C 8,0 km/h (2 Bft)
06.04.2020 00:30 10,1 C 51 % 1019,6 hPa 0,0 mm 1,3 km/h (1 Bft) SW 223 0 min 0,4 C 10,1 C 6,4 km/h (2 Bft)
06.04.2020 00:15 10,0 C 51 % 1019,5 hPa 0,0 mm 0,7 km/h (0 Bft) SW 216 0 min 0,3 C 10,0 C 6,4 km/h (2 Bft)
06.04.2020 00:00 11,1 C 47 % 1019,5 hPa 0,0 mm 1,3 km/h (1 Bft) S-SW 192 0 min 0,2 C 11,1 C 12,9 km/h (3 Bft)
05.04.2020 23:45 12,1 C 44 % 1019,5 hPa 0,0 mm 1,6 km/h (1 Bft) S-SO 157 0 min 0,2 C 12,1 C 17,7 km/h (3 Bft)
05.04.2020 23:30 12,3 C 43 % 1019,5 hPa 0,0 mm 4,8 km/h (1 Bft) SO 135 0 min 0,1 C 12,3 C 20,9 km/h (4 Bft)
05.04.2020 23:15 12,5 C 43 % 1019,5 hPa 0,0 mm 8,0 km/h (2 Bft) SO 135 0 min 0,3 C 12,5 C 22,5 km/h (4 Bft)
05.04.2020 23:00 12,7 C 42 % 1019,6 hPa 0,0 mm 7,7 km/h (2 Bft) O-SO 111 0 min 0,1 C 12,7 C 19,3 km/h (3 Bft)
05.04.2020 22:45 12,9 C 42 % 1019,6 hPa 0,0 mm 11,2 km/h (2 Bft) O-NO 74 0 min 0,3 C 12,9 C 24,1 km/h (4 Bft)
05.04.2020 22:30 13,1 C 42 % 1019,8 hPa 0,0 mm 11,4 km/h (2 Bft) O 93 0 min 0,5 C 13,1 C 25,7 km/h (4 Bft)
05.04.2020 22:15 13,3 C 41 % 1019,8 hPa 0,0 mm 14,2 km/h (3 Bft) O-SO 123 0 min 0,3 C 13,3 C 27,4 km/h (4 Bft)
05.04.2020 22:00 13,4 C 41 % 1020,0 hPa 0,0 mm 10,7 km/h (2 Bft) O 101 0 min 0,4 C 13,4 C 27,4 km/h (4 Bft)
05.04.2020 21:45 13,6 C 41 % 1020,0 hPa 0,0 mm 10,3 km/h (2 Bft) O-SO 114 0 min 0,6 C 13,6 C 29,0 km/h (5 Bft)
05.04.2020 21:30 13,8 C 41 % 1020,0 hPa 0,0 mm 13,5 km/h (3 Bft) O-SO 116 0 min 0,8 C 13,8 C 29,0 km/h (5 Bft)
05.04.2020 21:15 14,0 C 40 % 1019,9 hPa 0,0 mm 12,6 km/h (3 Bft) SO 125 0 min 0,6 C 14,0 C 27,4 km/h (4 Bft)
05.04.2020 21:00 14,2 C 40 % 1020,0 hPa 0,0 mm 9,9 km/h (2 Bft) O-SO 115 0 min 0,8 C 14,2 C 27,4 km/h (4 Bft)
05.04.2020 20:45 14,4 C 40 % 1020,0 hPa 0,0 mm 12,0 km/h (2 Bft) SO 143 0 min 1,0 C 14,4 C 24,1 km/h (4 Bft)
05.04.2020 20:30 14,7 C 39 % 1020,0 hPa 0,0 mm 13,3 km/h (3 Bft) SO 137 0 min 0,9 C 14,7 C 27,4 km/h (4 Bft)
05.04.2020 20:15 14,9 C 38 % 1020,0 hPa 0,0 mm 11,6 km/h (2 Bft) O-SO 122 0 min 0,7 C 14,9 C 25,7 km/h (4 Bft)
05.04.2020 20:00 15,2 C 38 % 1020,0 hPa 0,0 mm 11,2 km/h (2 Bft) O-SO 115 0 min 1,0 C 15,2 C 29,0 km/h (5 Bft)
05.04.2020 19:45 15,4 C 38 % 1020,1 hPa 0,0 mm 9,7 km/h (2 Bft) S-SO 165 0 min 1,2 C 15,4 C 25,7 km/h (4 Bft)
05.04.2020 19:30 15,7 C 38 % 1020,0 hPa 0,0 mm 7,2 km/h (2 Bft) S-SO 165 0 min 1,4 C 15,7 C 24,1 km/h (4 Bft)
05.04.2020 19:15 15,9 C 38 % 1020,0 hPa 0,0 mm 7,5 km/h (2 Bft) SO 133 0 min 1,6 C 15,9 C 27,4 km/h (4 Bft)
05.04.2020 19:00 16,0 C 38 % 1020,2 hPa 0,0 mm 11,5 km/h (2 Bft) S 170 0 min 1,7 C 16,0 C 32,2 km/h (5 Bft)
05.04.2020 18:45 16,1 C 38 % 1020,2 hPa 0,0 mm 15,1 km/h (3 Bft) O-SO 111 15 min 1,8 C 16,1 C 29,0 km/h (5 Bft)
05.04.2020 18:30 16,4 C 38 % 1020,2 hPa 0,0 mm 6,6 km/h (2 Bft) SO 134 15 min 2,1 C 16,4 C 27,4 km/h (4 Bft)
05.04.2020 18:15 16,3 C 39 % 1020,3 hPa 0,0 mm 10,9 km/h (2 Bft) S-SO 152 15 min 2,3 C 16,3 C 33,8 km/h (5 Bft)
05.04.2020 18:00 16,4 C 38 % 1020,4 hPa 0,0 mm 13,5 km/h (3 Bft) SO 125 15 min 2,1 C 16,4 C 29,0 km/h (5 Bft)
05.04.2020 17:45 16,4 C 37 % 1020,5 hPa 0,0 mm 14,6 km/h (3 Bft) SO 138 15 min 1,7 C 16,4 C 32,2 km/h (5 Bft)
05.04.2020 17:30 16,4 C 37 % 1020,7 hPa 0,0 mm 13,8 km/h (3 Bft) O-SO 103 15 min 1,7 C 16,4 C 35,4 km/h (5 Bft)
05.04.2020 17:15 16,7 C 37 % 1020,9 hPa 0,0 mm 12,5 km/h (3 Bft) O-NO 78 15 min 1,9 C 16,7 C 29,0 km/h (5 Bft)
05.04.2020 17:00 16,7 C 37 % 1021,0 hPa 0,0 mm 15,6 km/h (3 Bft) O-SO 111 15 min 1,9 C 16,7 C 38,6 km/h (5 Bft)
05.04.2020 16:45 16,8 C 37 % 1021,2 hPa 0,0 mm 8,9 km/h (2 Bft) O-SO 105 15 min 2,0 C 16,8 C 22,5 km/h (4 Bft)
05.04.2020 16:30 16,6 C 38 % 1021,4 hPa 0,0 mm 10,2 km/h (2 Bft) S-SO 165 15 min 2,2 C 16,6 C 25,7 km/h (4 Bft)
05.04.2020 16:15 16,7 C 36 % 1021,6 hPa 0,0 mm 11,9 km/h (2 Bft) O-SO 102 15 min 1,6 C 16,7 C 27,4 km/h (4 Bft)
05.04.2020 16:00 16,6 C 37 % 1021,8 hPa 0,0 mm 11,7 km/h (2 Bft) SO 136 15 min 1,9 C 16,6 C 35,4 km/h (5 Bft)
05.04.2020 15:45 16,7 C 36 % 1022,0 hPa 0,0 mm 10,3 km/h (2 Bft) SO 128 15 min 1,6 C 16,7 C 32,2 km/h (5 Bft)
05.04.2020 15:30 16,3 C 38 % 1022,3 hPa 0,0 mm 11,6 km/h (2 Bft) SO 136 15 min 2,0 C 16,3 C 35,4 km/h (5 Bft)
05.04.2020 15:15 16,6 C 39 % 1022,5 hPa 0,0 mm 11,2 km/h (2 Bft) S-SO 160 15 min 2,6 C 16,6 C 25,7 km/h (4 Bft)
05.04.2020 15:00 16,1 C 37 % 1022,6 hPa 0,0 mm 13,4 km/h (3 Bft) SO 128 15 min 1,4 C 16,1 C 29,0 km/h (5 Bft)
_ Min-Zeit 07:00 14:00 04:45 - 04:30 - - - 06:45 06:45 04:45
Minimum _ 2,8 C 32 % 1019,0 hPa - 0,0 km/h (0 Bft) - - - -0,9 C 2,9 C 0,0 km/h (0 Bft)
_ Max-Zeit 14:00 06:45 15:00 15:00 17:00 - - 15:00 14:00 14:00 17:00
Maximum _ 21,2 C 76 % 1022,6 hPa 0,0 mm 15,6 km/h
O-SO (3 Bft)
- - 15 min 3,8 C 21,2 C 38,6 km/h
O-SO (5 Bft)
Durchschnitt _ 12,4 C 48 % 1020,0 hPa #0,0 mm 6,1 km/h (2 Bft) SO - #6:15 h 1,0 C 12,4 C 16,6 km/h (3 Bft)